ジュネーヴ の空港の天気 - METARとTAF

ジュネーヴ・コアントラン国際空港 ( LSGG / GVA ) - スイス ジュネーヴ
飛行場実況気象(Metar)
観測時間07/07 13:50 CEST (07/07 11:50 UTC)
風向・風速東北東 5m/s
視程10km以上
天気現象
少しの雲 雲底高度 1520m
気温22℃
湿度38%
気圧1019hPa
METARLSGG 071150Z 06009KT 010V090 9999 FEW050 22/07 Q1019 NOSIG
過去の天気等 Google飛行場航空写真 Wunderground天気予報

過去48時間のMETAR

飛行場予報(TAF)
発表時間: 7/07 13:25 CEST (7/07 11:25 UTC)
予報対象時間: 7日14時 CEST ~ 8日20時 CEST
風向・風速北北東 5m/s
視程10km以上
なし
7日20時 CEST ~ 7日23時 CEST に徐々に
風向・風速不定 2m/s
TAF LSGG 071125Z 0712/0818 03009KT CAVOK TX23/0715Z TN12/0804Z TX28/0815Z
BECMG 0718/0721 VRB03KT